createdAt,value
2023-02-07T00:01:10.783Z,100610.94
2023-02-07T00:06:19.653Z,100618.47
2023-02-07T00:11:25.134Z,100618.50
2023-02-07T00:16:31.789Z,100640.44
2023-02-07T00:21:36.106Z,100648.94
2023-02-07T00:26:40.972Z,100655.69
2023-02-07T00:31:47.128Z,100647.25
2023-02-07T00:36:51.421Z,100640.50
2023-02-07T00:41:56.127Z,100637.13
2023-02-07T00:47:02.046Z,100612.66
2023-02-07T00:52:06.650Z,100616.03
2023-02-07T00:57:11.071Z,100603.34
2023-02-07T01:02:16.852Z,100594.06
2023-02-07T01:07:22.967Z,100578.06
2023-02-07T01:12:27.583Z,100582.25
2023-02-07T01:17:33.321Z,100572.13
2023-02-07T01:22:38.499Z,100564.53
2023-02-07T01:27:42.812Z,100566.22
2023-02-07T01:32:48.651Z,100573.81
2023-02-07T01:37:52.979Z,100575.53
2023-02-07T01:42:57.931Z,100584.75
2023-02-07T01:48:08.405Z,100573.81
2023-02-07T01:53:15.635Z,100557.78
2023-02-07T01:58:20.175Z,100546.00
2023-02-07T02:03:26.170Z,100553.59
2023-02-07T02:08:30.737Z,100563.69
2023-02-07T02:13:41.945Z,100556.09
2023-02-07T02:19:09.866Z,100559.47
2023-02-07T02:24:53.894Z,100569.56
2023-02-07T02:30:36.121Z,100562.88
2023-02-07T02:35:55.102Z,100566.25
2023-02-07T02:41:06.251Z,100565.38
2023-02-07T02:46:18.823Z,100564.53
2023-02-07T02:51:25.508Z,100571.31
2023-02-07T02:56:55.159Z,100568.78
2023-02-07T03:02:13.539Z,100560.34
2023-02-07T03:07:43.637Z,100565.41
2023-02-07T03:12:58.811Z,100578.06
2023-02-07T03:18:11.800Z,100573.84
2023-02-07T03:23:20.078Z,100583.09
2023-02-07T03:28:27.637Z,100589.03
2023-02-07T03:33:32.859Z,100580.59
2023-02-07T03:38:40.169Z,100589.84
2023-02-07T03:43:45.307Z,100583.97
2023-02-07T03:48:49.584Z,100594.06
2023-02-07T03:53:55.339Z,100594.94
2023-02-07T03:58:59.956Z,100583.13
2023-02-07T04:04:04.977Z,100578.03
2023-02-07T04:09:11.962Z,100594.06
2023-02-07T04:14:16.988Z,100592.38
2023-02-07T04:19:21.473Z,100583.09
2023-02-07T04:24:27.560Z,100578.91
2023-02-07T04:29:32.036Z,100570.44
2023-02-07T04:34:36.568Z,100571.28
2023-02-07T04:39:42.328Z,100562.84
2023-02-07T04:44:47.210Z,100570.38
2023-02-07T04:49:51.665Z,100570.34
2023-02-07T04:54:57.270Z,100572.00
2023-02-07T05:00:01.591Z,100582.94
2023-02-07T05:05:06.163Z,100584.59
2023-02-07T05:10:12.337Z,100584.56
2023-02-07T05:15:16.812Z,100592.16
2023-02-07T05:20:21.688Z,100590.53
2023-02-07T05:25:28.087Z,100589.69
2023-02-07T05:30:32.641Z,100589.72
2023-02-07T05:35:40.018Z,100586.41
2023-02-07T05:40:46.967Z,100599.97
2023-02-07T05:45:51.333Z,100586.47
2023-02-07T05:50:55.532Z,100593.22
2023-02-07T05:56:01.116Z,100583.94
2023-02-07T06:01:05.774Z,100583.84
2023-02-07T06:06:10.154Z,100583.81
2023-02-07T06:11:15.683Z,100590.50
2023-02-07T06:16:20.252Z,100592.94
2023-02-07T06:21:28.212Z,100610.63
2023-02-07T06:26:38.079Z,100606.28
2023-02-07T06:31:42.681Z,100609.47
2023-02-07T06:36:46.891Z,100616.09
2023-02-07T06:41:52.208Z,100613.38
2023-02-07T06:46:56.544Z,100621.69
2023-02-07T06:52:00.966Z,100622.31
2023-02-07T06:57:06.787Z,100622.06
2023-02-07T07:02:12.969Z,100634.78
2023-02-07T07:07:17.651Z,100630.50
2023-02-07T07:12:23.657Z,100632.00
2023-02-07T07:17:28.041Z,100632.59
2023-02-07T07:22:32.652Z,100622.28
2023-02-07T07:27:39.050Z,100626.38
2023-02-07T07:32:43.365Z,100625.38
2023-02-07T07:37:47.364Z,100615.84
2023-02-07T07:42:53.160Z,100616.38
2023-02-07T07:48:07.550Z,100612.75
2023-02-07T07:53:11.973Z,100618.38
2023-02-07T07:58:17.611Z,100632.78
2023-02-07T08:03:23.582Z,100622.59
2023-02-07T08:08:27.765Z,100633.56
2023-02-07T08:13:33.576Z,100635.00
2023-02-07T08:18:38.611Z,100635.09
2023-02-07T08:23:43.035Z,100632.25
2023-02-07T08:28:49.835Z,100638.22
2023-02-07T08:33:54.648Z,100635.31
2023-02-07T08:38:58.846Z,100630.28
2023-02-07T08:44:04.650Z,100625.63
2023-02-07T08:49:09.004Z,100631.59
2023-02-07T08:54:13.416Z,100633.88
2023-02-07T08:59:19.450Z,100622.38
2023-02-07T09:04:24.121Z,100630.56
2023-02-07T09:09:28.570Z,100630.34
2023-02-07T09:14:34.349Z,100625.91
2023-02-07T09:19:38.987Z,100632.53
2023-02-07T09:24:43.317Z,100624.94
2023-02-07T09:29:49.305Z,100621.19
2023-02-07T09:34:54.677Z,100629.66
2023-02-07T09:39:59.050Z,100622.81
2023-02-07T09:45:11.069Z,100622.72
2023-02-07T09:50:20.758Z,100604.44
2023-02-07T09:55:29.163Z,100611.50
2023-02-07T10:00:38.334Z,100603.69
2023-02-07T10:05:49.381Z,100606.91
2023-02-07T10:11:14.499Z,100598.63
2023-02-07T10:16:30.549Z,100597.69
2023-02-07T10:21:45.528Z,100600.63
2023-02-07T10:26:54.968Z,100592.97
2023-02-07T10:32:04.228Z,100586.19
2023-02-07T10:37:20.565Z,100592.03
2023-02-07T10:42:24.753Z,100592.81
2023-02-07T10:47:34.817Z,100588.97
2023-02-07T10:52:44.862Z,100595.31
2023-02-07T10:58:02.736Z,100592.44
2023-02-07T11:03:20.689Z,100591.44
2023-02-07T11:08:28.216Z,100600.69
2023-02-07T11:13:33.691Z,100592.31
2023-02-07T11:18:45.726Z,100591.75
2023-02-07T11:23:56.589Z,100590.41
2023-02-07T11:29:13.873Z,100598.75
2023-02-07T11:34:48.957Z,100591.59
2023-02-07T11:39:56.200Z,100589.34
2023-02-07T11:45:06.542Z,100588.22
2023-02-07T11:50:22.142Z,100588.44
2023-02-07T11:55:32.173Z,100584.09
2023-02-07T12:00:38.699Z,100586.63
2023-02-07T12:05:47.421Z,100583.44
2023-02-07T12:10:57.266Z,100579.78
2023-02-07T12:16:06.333Z,100575.69
2023-02-07T12:21:21.050Z,100572.91
2023-02-07T12:26:28.630Z,100563.06
2023-02-07T12:31:47.420Z,100561.66
2023-02-07T12:37:02.049Z,100561.78
2023-02-07T12:42:27.393Z,100555.78
2023-02-07T12:47:51.530Z,100556.00
2023-02-07T12:53:11.044Z,100547.28
2023-02-07T12:58:35.694Z,100546.13
2023-02-07T13:04:12.434Z,100543.28
2023-02-07T13:09:29.627Z,100539.59
2023-02-07T13:14:48.708Z,100549.94
2023-02-07T13:20:02.097Z,100554.41
2023-02-07T13:25:15.922Z,100564.03
2023-02-07T13:30:21.993Z,100558.16
2023-02-07T13:35:31.606Z,100554.47
2023-02-07T13:40:51.471Z,100549.66
2023-02-07T13:46:07.767Z,100557.19
2023-02-07T13:51:21.549Z,100552.25
2023-02-07T13:56:52.929Z,100553.31
2023-02-07T14:02:01.102Z,100548.78
2023-02-07T14:07:11.962Z,100551.13
2023-02-07T14:12:23.658Z,100544.91
2023-02-07T14:18:00.370Z,100545.38
2023-02-07T14:23:16.254Z,100540.56
2023-02-07T14:28:33.188Z,100535.34
2023-02-07T14:33:42.231Z,100541.91
2023-02-07T14:39:07.148Z,100521.63
2023-02-07T14:44:26.628Z,100520.66
2023-02-07T14:49:36.463Z,100521.97
2023-02-07T14:54:46.444Z,100528.38
2023-02-07T15:00:02.522Z,100526.53
2023-02-07T15:05:25.660Z,100530.69
2023-02-07T15:10:33.635Z,100547.13
2023-02-07T15:15:51.265Z,100557.53
2023-02-07T15:20:58.818Z,100568.44
2023-02-07T15:26:08.703Z,100572.91
2023-02-07T15:31:17.530Z,100576.59
2023-02-07T15:36:35.328Z,100579.94
2023-02-07T15:41:40.045Z,100591.19
2023-02-07T15:46:48.916Z,100592.13
2023-02-07T15:51:55.605Z,100585.31
2023-02-07T15:57:01.751Z,100609.84
2023-02-07T16:02:21.060Z,100610.66
2023-02-07T16:07:26.677Z,100604.91
2023-02-07T16:12:34.849Z,100620.31
2023-02-07T16:17:43.091Z,100622.09
2023-02-07T16:22:48.405Z,100625.69
2023-02-07T16:27:54.130Z,100623.59
2023-02-07T16:33:00.203Z,100621.94
2023-02-07T16:38:04.577Z,100627.25
2023-02-07T16:43:09.980Z,100630.41
2023-02-07T16:48:16.510Z,100636.50
2023-02-07T16:53:20.678Z,100636.44
2023-02-07T16:58:29.292Z,100644.94
2023-02-07T17:03:35.168Z,100656.88
2023-02-07T17:08:39.763Z,100657.81
2023-02-07T17:13:44.462Z,100653.75
2023-02-07T17:18:50.579Z,100650.97
2023-02-07T17:23:55.046Z,100649.94
2023-02-07T17:28:59.597Z,100650.25
2023-02-07T17:34:05.043Z,100659.13
2023-02-07T17:39:13.296Z,100671.47
2023-02-07T17:44:21.643Z,100660.53
2023-02-07T17:49:28.288Z,100662.31
2023-02-07T17:54:32.687Z,100670.66
2023-02-07T17:59:37.126Z,100668.91
2023-02-07T18:04:42.778Z,100666.69
2023-02-07T18:09:47.364Z,100682.00
2023-02-07T18:14:52.629Z,100692.09
2023-02-07T18:19:58.598Z,100697.16
2023-02-07T18:25:02.809Z,100700.72
2023-02-07T18:30:09.386Z,100703.25
2023-02-07T18:35:15.557Z,100709.09
2023-02-07T18:40:20.176Z,100711.78
2023-02-07T18:45:25.394Z,100702.25
2023-02-07T18:50:31.662Z,100698.84
2023-02-07T18:55:35.842Z,100697.22
2023-02-07T19:00:40.276Z,100704.84
2023-02-07T19:05:46.027Z,100706.69
2023-02-07T19:10:55.755Z,100700.72
2023-02-07T19:16:04.906Z,100706.44
2023-02-07T19:21:13.491Z,100710.81
2023-02-07T19:26:18.332Z,100708.22
2023-02-07T19:31:24.781Z,100711.56
2023-02-07T19:36:31.362Z,100709.03
2023-02-07T19:41:36.137Z,100714.84
2023-02-07T19:46:40.626Z,100713.34
2023-02-07T19:51:48.198Z,100714.31
2023-02-07T19:56:52.837Z,100712.63
2023-02-07T20:01:57.239Z,100711.69
2023-02-07T20:07:03.181Z,100726.19
2023-02-07T20:12:08.356Z,100731.41
2023-02-07T20:17:12.961Z,100724.53
2023-02-07T20:22:18.816Z,100721.16
2023-02-07T20:27:23.577Z,100733.91
2023-02-07T20:32:27.840Z,100736.28
2023-02-07T20:37:33.740Z,100744.19
2023-02-07T20:42:38.164Z,100750.22
2023-02-07T20:47:42.529Z,100751.81
2023-02-07T20:52:48.704Z,100745.75
2023-02-07T20:57:52.870Z,100757.69
2023-02-07T21:02:57.206Z,100756.72
2023-02-07T21:08:03.750Z,100755.25
2023-02-07T21:13:08.597Z,100756.94
2023-02-07T21:18:13.097Z,100756.75
2023-02-07T21:23:18.659Z,100761.00
2023-02-07T21:28:23.165Z,100764.41
2023-02-07T21:33:27.326Z,100757.56
2023-02-07T21:38:33.580Z,100768.69
2023-02-07T21:43:40.241Z,100762.81
2023-02-07T21:48:46.700Z,100762.00
2023-02-07T21:53:55.386Z,100763.72
2023-02-07T21:59:01.922Z,100766.28
2023-02-07T22:04:10.954Z,100762.97
2023-02-07T22:09:19.102Z,100757.78
2023-02-07T22:14:25.849Z,100762.78
2023-02-07T22:19:30.754Z,100758.28
2023-02-07T22:24:36.891Z,100775.28
2023-02-07T22:29:42.035Z,100771.88
2023-02-07T22:34:46.790Z,100771.09
2023-02-07T22:39:52.622Z,100779.56
2023-02-07T22:44:56.953Z,100781.25
2023-02-07T22:50:01.139Z,100774.28
2023-02-07T22:55:08.092Z,100783.81
2023-02-07T23:00:14.802Z,100781.53
2023-02-07T23:05:19.412Z,100788.25
2023-02-07T23:10:26.416Z,100780.63
2023-02-07T23:15:30.820Z,100778.03
2023-02-07T23:20:35.065Z,100795.81
2023-02-07T23:25:44.624Z,100783.28
2023-02-07T23:30:49.008Z,100796.75
2023-02-07T23:35:53.439Z,100797.72
2023-02-07T23:40:59.250Z,100795.19
2023-02-07T23:46:04.021Z,100792.72
2023-02-07T23:51:08.824Z,100796.03
2023-02-07T23:56:19.114Z,100801.88
